createdAt,value
2019-06-02T00:00:58.392Z,8.30
2019-06-02T00:02:03.912Z,8.90
2019-06-02T00:03:09.436Z,8.00
2019-06-02T00:04:14.942Z,9.40
2019-06-02T00:05:20.464Z,9.70
2019-06-02T00:06:26.282Z,9.10
2019-06-02T00:07:32.458Z,9.20
2019-06-02T00:08:37.009Z,9.50
2019-06-02T00:09:42.519Z,8.50
2019-06-02T00:10:48.028Z,8.30
2019-06-02T00:11:53.553Z,8.40
2019-06-02T00:12:59.073Z,9.20
2019-06-02T00:14:04.577Z,7.70
2019-06-02T00:15:10.093Z,9.30
2019-06-02T00:16:15.626Z,9.00
2019-06-02T00:17:21.131Z,7.90
2019-06-02T00:18:26.940Z,9.90
2019-06-02T00:19:33.302Z,9.50
2019-06-02T00:20:37.673Z,9.00
2019-06-02T00:21:43.188Z,8.50
2019-06-02T00:22:48.699Z,8.20
2019-06-02T00:23:54.216Z,8.80
2019-06-02T00:24:59.751Z,11.60
2019-06-02T00:26:05.246Z,9.10
2019-06-02T00:27:10.759Z,9.80
2019-06-02T00:28:16.274Z,8.40
2019-06-02T00:29:21.798Z,9.80
2019-06-02T00:30:27.836Z,8.20
2019-06-02T00:31:33.298Z,9.60
2019-06-02T00:32:38.336Z,9.40
2019-06-02T00:33:43.854Z,8.70
2019-06-02T00:34:49.366Z,9.70
2019-06-02T00:35:54.890Z,8.10
2019-06-02T00:37:00.402Z,9.50
2019-06-02T00:38:05.911Z,11.20
2019-06-02T00:39:11.428Z,8.10
2019-06-02T00:40:16.938Z,8.10
2019-06-02T00:41:22.462Z,9.40
2019-06-02T00:42:28.771Z,9.50
2019-06-02T00:43:34.770Z,8.50
2019-06-02T00:44:56.000Z,9.20
2019-06-02T00:45:44.515Z,8.60
2019-06-02T00:46:50.036Z,9.20
2019-06-02T00:47:55.550Z,10.00
2019-06-02T00:49:01.066Z,11.80
2019-06-02T00:50:06.586Z,10.40
2019-06-02T00:51:12.095Z,9.30
2019-06-02T00:52:17.600Z,8.90
2019-06-02T00:53:23.118Z,8.60
2019-06-02T00:54:29.867Z,8.60
2019-06-02T00:55:34.148Z,9.20
2019-06-02T00:56:39.667Z,9.60
2019-06-02T00:57:45.179Z,9.60
2019-06-02T00:58:50.713Z,9.40
2019-06-02T00:59:56.220Z,10.40
2019-06-02T01:01:01.800Z,8.90
2019-06-02T01:02:07.235Z,9.60
2019-06-02T01:03:12.754Z,7.90
2019-06-02T01:04:18.277Z,11.50
2019-06-02T01:05:23.783Z,8.80
2019-06-02T01:06:30.454Z,12.00
2019-06-02T01:07:34.825Z,9.80
2019-06-02T01:08:40.328Z,9.90
2019-06-02T01:09:45.864Z,8.40
2019-06-02T01:10:51.358Z,10.10
2019-06-02T01:11:56.886Z,9.20
2019-06-02T01:13:02.387Z,9.30
2019-06-02T01:14:07.898Z,8.60
2019-06-02T01:15:13.422Z,9.00
2019-06-02T01:16:18.933Z,8.70
2019-06-02T01:17:24.455Z,8.80
2019-06-02T01:18:30.812Z,9.70
2019-06-02T01:19:35.478Z,7.90
2019-06-02T01:20:40.996Z,8.90
2019-06-02T01:21:46.511Z,8.70
2019-06-02T01:22:52.018Z,9.20
2019-06-02T01:23:57.530Z,8.40
2019-06-02T01:25:03.050Z,9.70
2019-06-02T01:26:08.573Z,9.00
2019-06-02T01:27:14.089Z,8.50
2019-06-02T01:28:19.653Z,8.90
2019-06-02T01:29:25.108Z,8.60
2019-06-02T01:30:31.334Z,8.60
2019-06-02T01:31:41.247Z,9.70
2019-06-02T01:32:41.651Z,9.50
2019-06-02T01:33:47.168Z,8.90
2019-06-02T01:34:52.683Z,9.80
2019-06-02T01:35:58.205Z,8.50
2019-06-02T01:37:03.718Z,8.60
2019-06-02T01:38:09.228Z,10.10
2019-06-02T01:39:14.745Z,9.10
2019-06-02T01:40:20.262Z,11.70
2019-06-02T01:41:25.768Z,8.90
2019-06-02T01:42:32.302Z,9.40
2019-06-02T01:43:36.802Z,9.10
2019-06-02T01:44:42.318Z,10.00
2019-06-02T01:45:47.828Z,9.60
2019-06-02T01:46:53.340Z,11.20
2019-06-02T01:47:58.865Z,8.50
2019-06-02T01:49:04.373Z,9.00
2019-06-02T01:50:09.889Z,9.70
2019-06-02T01:51:15.407Z,8.70
2019-06-02T01:52:20.922Z,12.10
2019-06-02T01:53:26.440Z,9.90
2019-06-02T01:54:32.841Z,9.20
2019-06-02T01:55:37.464Z,10.10
2019-06-02T01:56:42.992Z,9.10
2019-06-02T01:57:48.501Z,10.80
2019-06-02T01:58:54.004Z,9.30
2019-06-02T01:59:59.528Z,9.40
2019-06-02T02:01:05.058Z,8.80
2019-06-02T02:02:10.559Z,8.60
2019-06-02T02:03:16.064Z,8.60
2019-06-02T02:04:21.584Z,8.90
2019-06-02T02:05:27.099Z,9.10
2019-06-02T02:06:33.640Z,9.70
2019-06-02T02:07:39.052Z,10.20
2019-06-02T02:08:43.647Z,9.80
2019-06-02T02:09:49.163Z,8.50
2019-06-02T02:10:54.667Z,11.10
2019-06-02T02:12:00.183Z,11.10
2019-06-02T02:13:05.695Z,10.00
2019-06-02T02:14:11.215Z,9.60
2019-06-02T02:15:16.725Z,10.20
2019-06-02T02:16:22.240Z,11.20
2019-06-02T02:17:27.760Z,9.90
2019-06-02T02:18:33.696Z,11.90
2019-06-02T02:19:39.932Z,11.40
2019-06-02T02:20:44.295Z,13.20
2019-06-02T02:21:49.823Z,8.70
2019-06-02T02:22:55.334Z,11.30
2019-06-02T02:24:00.847Z,7.90
2019-06-02T02:25:06.361Z,9.70
2019-06-02T02:26:11.877Z,11.00
2019-06-02T02:27:17.389Z,11.20
2019-06-02T02:28:22.897Z,10.40
2019-06-02T02:29:28.418Z,10.70
2019-06-02T02:30:35.344Z,9.80
2019-06-02T02:31:40.187Z,9.20
2019-06-02T02:32:46.041Z,11.00
2019-06-02T02:33:50.485Z,9.60
2019-06-02T02:34:55.997Z,8.70
2019-06-02T02:36:01.508Z,8.80
2019-06-02T02:37:07.023Z,10.80
2019-06-02T02:38:12.537Z,9.20
2019-06-02T02:39:18.054Z,9.30
2019-06-02T02:40:23.559Z,8.40
2019-06-02T02:41:29.077Z,9.70
2019-06-02T02:42:36.379Z,9.40
2019-06-02T02:43:41.484Z,9.60
2019-06-02T02:44:46.820Z,9.20
2019-06-02T02:46:10.956Z,10.00
2019-06-02T02:46:56.653Z,8.50
2019-06-02T02:48:02.167Z,8.80
2019-06-02T02:49:07.680Z,9.20
2019-06-02T02:50:13.186Z,9.90
2019-06-02T02:51:18.694Z,10.30
2019-06-02T02:52:24.229Z,7.60
2019-06-02T02:53:29.735Z,8.20
2019-06-02T02:54:35.933Z,9.00
2019-06-02T02:55:42.130Z,9.40
2019-06-02T02:56:46.290Z,8.70
2019-06-02T02:57:51.790Z,9.00
2019-06-02T02:58:57.301Z,8.20
2019-06-02T03:00:02.827Z,9.20
2019-06-02T03:01:08.336Z,8.20
2019-06-02T03:02:13.850Z,8.50
2019-06-02T03:03:19.368Z,9.90
2019-06-02T03:04:24.874Z,9.70
2019-06-02T03:05:30.397Z,8.70
2019-06-02T03:06:35.976Z,8.60
2019-06-02T03:07:42.358Z,9.20
2019-06-02T03:08:47.336Z,8.00
2019-06-02T03:09:52.449Z,8.00
2019-06-02T03:10:57.972Z,8.20
2019-06-02T03:12:03.481Z,7.90
2019-06-02T03:13:08.991Z,8.00
2019-06-02T03:14:14.517Z,9.00
2019-06-02T03:15:20.024Z,9.70
2019-06-02T03:16:32.850Z,9.50
2019-06-02T03:17:31.871Z,7.50
2019-06-02T03:18:38.574Z,8.30
2019-06-02T03:19:42.409Z,7.50
2019-06-02T03:20:48.210Z,8.70
2019-06-02T03:21:53.108Z,8.10
2019-06-02T03:22:58.619Z,8.70
2019-06-02T03:24:04.149Z,10.50
2019-06-02T03:25:09.657Z,8.40
2019-06-02T03:26:15.185Z,8.10
2019-06-02T03:27:20.678Z,7.90
2019-06-02T03:28:26.197Z,7.60
2019-06-02T03:29:31.707Z,7.60
2019-06-02T03:30:39.669Z,7.80
2019-06-02T03:31:49.143Z,8.00
2019-06-02T03:32:59.098Z,7.70
2019-06-02T03:33:58.836Z,8.20
2019-06-02T03:34:59.429Z,8.10
2019-06-02T03:36:04.804Z,7.60
2019-06-02T03:37:10.306Z,8.20
2019-06-02T03:38:15.823Z,7.30
2019-06-02T03:39:21.342Z,7.40
2019-06-02T03:40:26.844Z,7.20
2019-06-02T03:41:32.363Z,7.40
2019-06-02T03:42:40.138Z,8.00
2019-06-02T03:43:43.790Z,7.70
2019-06-02T03:44:48.917Z,8.30
2019-06-02T03:45:54.422Z,7.40
2019-06-02T03:47:07.623Z,7.80
2019-06-02T03:48:05.442Z,7.30
2019-06-02T03:49:10.965Z,7.40
2019-06-02T03:50:16.473Z,7.50
2019-06-02T03:51:21.993Z,7.60
2019-06-02T03:52:27.500Z,7.40
2019-06-02T03:53:33.025Z,6.90
2019-06-02T03:54:40.138Z,7.80
2019-06-02T03:55:44.713Z,7.70
2019-06-02T03:56:49.570Z,7.20
2019-06-02T03:57:55.074Z,7.40
2019-06-02T03:59:00.585Z,7.40
2019-06-02T04:00:06.101Z,8.00
2019-06-02T04:01:11.615Z,7.90
2019-06-02T04:02:17.153Z,7.40
2019-06-02T04:03:22.640Z,7.50
2019-06-02T04:04:28.161Z,7.80
2019-06-02T04:05:33.667Z,7.10
2019-06-02T04:06:41.180Z,7.40
2019-06-02T04:07:45.632Z,7.40
2019-06-02T04:08:50.250Z,6.90
2019-06-02T04:09:55.724Z,8.00
2019-06-02T04:11:01.249Z,7.10
2019-06-02T04:12:06.753Z,7.60
2019-06-02T04:13:12.268Z,7.40
2019-06-02T04:14:17.786Z,7.50
2019-06-02T04:15:23.286Z,7.00
2019-06-02T04:16:28.816Z,7.20
2019-06-02T04:17:34.334Z,7.30
2019-06-02T04:18:41.683Z,7.20
2019-06-02T04:19:46.946Z,6.40
2019-06-02T04:20:51.561Z,6.60
2019-06-02T04:21:56.382Z,6.90
2019-06-02T04:23:01.900Z,6.50
2019-06-02T04:24:07.411Z,6.90
2019-06-02T04:25:12.923Z,7.30
2019-06-02T04:26:18.439Z,6.70
2019-06-02T04:27:23.960Z,6.00
2019-06-02T04:28:29.470Z,6.20
2019-06-02T04:29:34.979Z,5.40
2019-06-02T04:30:40.540Z,5.50
2019-06-02T04:31:46.398Z,5.70
2019-06-02T04:32:52.293Z,5.50
2019-06-02T04:33:57.045Z,5.00
2019-06-02T04:35:02.565Z,5.40
2019-06-02T04:36:08.074Z,5.20
2019-06-02T04:37:13.591Z,4.70
2019-06-02T04:38:19.113Z,5.30
2019-06-02T04:39:24.615Z,5.30
2019-06-02T04:40:30.133Z,5.40
2019-06-02T04:41:35.644Z,4.70
2019-06-02T04:42:41.194Z,4.60
2019-06-02T04:43:47.994Z,5.20
2019-06-02T04:44:52.694Z,4.70
2019-06-02T04:45:57.696Z,5.10
2019-06-02T04:47:03.227Z,4.90
2019-06-02T04:48:08.735Z,4.80
2019-06-02T04:49:14.258Z,4.60
2019-06-02T04:50:19.751Z,4.80
2019-06-02T04:51:25.270Z,4.50
2019-06-02T04:52:30.791Z,4.20
2019-06-02T04:53:36.300Z,4.90
2019-06-02T04:54:41.833Z,4.10
2019-06-02T04:55:48.302Z,4.00
2019-06-02T04:56:52.865Z,4.80
2019-06-02T04:57:58.364Z,4.20
2019-06-02T04:59:03.873Z,4.10
2019-06-02T05:00:09.397Z,3.90
2019-06-02T05:01:14.912Z,4.00
2019-06-02T05:02:20.423Z,4.30
2019-06-02T05:03:26.068Z,4.00
2019-06-02T05:04:31.455Z,3.90
2019-06-02T05:05:36.964Z,4.20
2019-06-02T05:06:42.993Z,3.80
2019-06-02T05:07:49.265Z,4.10
2019-06-02T05:08:53.507Z,4.70
2019-06-02T05:09:59.030Z,3.90
2019-06-02T05:11:04.539Z,3.70
2019-06-02T05:12:10.063Z,3.90
2019-06-02T05:13:15.566Z,3.70
2019-06-02T05:14:21.079Z,3.90
2019-06-02T05:15:26.629Z,3.80
2019-06-02T05:16:32.107Z,4.10
2019-06-02T05:17:52.817Z,3.60
2019-06-02T05:18:44.373Z,3.60
2019-06-02T05:19:48.776Z,4.10
2019-06-02T05:20:54.170Z,3.70
2019-06-02T05:21:59.699Z,4.10
2019-06-02T05:23:05.199Z,3.90
2019-06-02T05:24:10.716Z,3.70
2019-06-02T05:25:16.231Z,3.80
2019-06-02T05:26:21.740Z,3.90
2019-06-02T05:27:27.256Z,3.90
2019-06-02T05:28:32.780Z,3.50
2019-06-02T05:29:38.289Z,3.90
2019-06-02T05:30:44.026Z,3.40
2019-06-02T05:31:53.245Z,3.60
2019-06-02T05:32:54.846Z,3.40
2019-06-02T05:34:00.354Z,3.30
2019-06-02T05:35:05.877Z,3.90
2019-06-02T05:36:11.384Z,3.50
2019-06-02T05:37:16.899Z,3.60
2019-06-02T05:38:22.414Z,3.50
2019-06-02T05:39:27.938Z,5.00
2019-06-02T05:40:33.446Z,3.40
2019-06-02T05:41:39.070Z,3.50
2019-06-02T05:42:45.479Z,3.50
2019-06-02T05:43:50.138Z,3.50
2019-06-02T05:44:55.778Z,4.10
2019-06-02T05:46:01.040Z,3.80
2019-06-02T05:47:06.622Z,4.30
2019-06-02T05:48:14.697Z,3.20
2019-06-02T05:49:17.575Z,3.90
2019-06-02T05:50:23.090Z,3.60
2019-06-02T05:51:28.623Z,3.70
2019-06-02T05:52:34.133Z,4.40
2019-06-02T05:53:39.634Z,3.30
2019-06-02T05:54:45.149Z,3.50
2019-06-02T05:55:50.899Z,3.50
2019-06-02T05:56:57.285Z,3.40
2019-06-02T05:58:01.698Z,3.60
2019-06-02T05:59:07.214Z,4.10
2019-06-02T06:00:12.729Z,3.40
2019-06-02T06:01:18.261Z,3.50
2019-06-02T06:02:23.767Z,4.10
2019-06-02T06:03:29.299Z,4.20
2019-06-02T06:04:34.801Z,3.30
2019-06-02T06:05:40.309Z,3.20
2019-06-02T06:06:45.829Z,3.30
2019-06-02T06:07:52.391Z,3.30
2019-06-02T06:08:56.978Z,3.50
2019-06-02T06:10:02.373Z,3.20
2019-06-02T06:11:07.893Z,3.60
2019-06-02T06:12:13.408Z,3.40
2019-06-02T06:13:18.928Z,3.30
2019-06-02T06:14:24.440Z,3.50
2019-06-02T06:15:29.961Z,3.60
2019-06-02T06:16:35.476Z,3.30
2019-06-02T06:17:40.990Z,3.90
2019-06-02T06:18:46.510Z,3.20
2019-06-02T06:19:52.023Z,3.20
2019-06-02T06:20:59.197Z,3.50
2019-06-02T06:22:03.056Z,3.70
2019-06-02T06:23:08.571Z,3.10
2019-06-02T06:24:14.105Z,4.30
2019-06-02T06:25:19.608Z,3.40
2019-06-02T06:26:25.127Z,2.90
2019-06-02T06:27:30.642Z,3.50
2019-06-02T06:28:36.154Z,3.10
2019-06-02T06:29:41.670Z,3.00
2019-06-02T06:30:47.201Z,3.10
2019-06-02T06:31:53.179Z,3.70
2019-06-02T06:32:59.422Z,3.50
2019-06-02T06:34:03.742Z,3.50
2019-06-02T06:35:09.255Z,3.70
2019-06-02T06:36:14.771Z,3.10
2019-06-02T06:37:20.289Z,3.70
2019-06-02T06:38:25.804Z,3.00
2019-06-02T06:39:31.328Z,2.90
2019-06-02T06:40:36.852Z,3.10
2019-06-02T06:41:42.365Z,3.10
2019-06-02T06:42:47.873Z,3.40
2019-06-02T06:43:54.536Z,2.90
2019-06-02T06:44:58.899Z,3.10
2019-06-02T06:46:05.075Z,3.20
2019-06-02T06:47:09.935Z,4.00
2019-06-02T06:48:15.486Z,3.30
2019-06-02T06:49:20.967Z,4.20
2019-06-02T06:50:26.500Z,3.20
2019-06-02T06:51:32.010Z,3.00
2019-06-02T06:52:37.529Z,3.30
2019-06-02T06:53:43.034Z,3.70
2019-06-02T06:54:48.650Z,3.00
2019-06-02T06:55:54.629Z,3.30
2019-06-02T06:57:00.820Z,3.80
2019-06-02T06:58:06.488Z,3.00
2019-06-02T06:59:10.631Z,3.40
2019-06-02T07:00:16.144Z,3.00
2019-06-02T07:01:21.657Z,3.70
2019-06-02T07:02:27.178Z,3.20
2019-06-02T07:03:32.695Z,3.20
2019-06-02T07:04:38.215Z,4.10
2019-06-02T07:05:43.751Z,3.00
2019-06-02T07:06:49.255Z,3.10
2019-06-02T07:07:56.673Z,3.30
2019-06-02T07:09:01.625Z,2.90
2019-06-02T07:10:05.802Z,3.10
2019-06-02T07:11:11.318Z,2.80
2019-06-02T07:12:16.838Z,3.30
2019-06-02T07:13:22.357Z,3.10
2019-06-02T07:14:27.874Z,3.00
2019-06-02T07:15:33.387Z,3.20
2019-06-02T07:16:38.903Z,2.60
2019-06-02T07:17:44.418Z,3.20
2019-06-02T07:19:06.492Z,2.80
2019-06-02T07:19:55.800Z,2.80
2019-06-02T07:21:02.221Z,3.20
2019-06-02T07:22:06.605Z,3.00
2019-06-02T07:23:12.014Z,3.10
2019-06-02T07:24:17.527Z,3.20
2019-06-02T07:25:23.055Z,2.80
2019-06-02T07:26:28.564Z,3.30
2019-06-02T07:27:34.080Z,3.30
2019-06-02T07:28:39.595Z,3.00
2019-06-02T07:29:45.115Z,2.90
2019-06-02T07:30:50.681Z,2.80
2019-06-02T07:31:57.322Z,2.50
2019-06-02T07:33:01.811Z,3.90
2019-06-02T07:34:08.006Z,3.30
2019-06-02T07:35:12.725Z,2.90
2019-06-02T07:36:18.255Z,2.70
2019-06-02T07:37:23.742Z,2.80
2019-06-02T07:38:29.284Z,2.80
2019-06-02T07:39:34.772Z,2.80
2019-06-02T07:40:40.292Z,2.70
2019-06-02T07:41:45.810Z,2.80
2019-06-02T07:42:51.342Z,2.50
2019-06-02T07:43:56.852Z,2.70
2019-06-02T07:45:02.952Z,2.70
2019-06-02T07:46:09.417Z,2.60
2019-06-02T07:47:13.410Z,2.40
2019-06-02T07:48:18.934Z,3.90
2019-06-02T07:49:29.652Z,3.20
2019-06-02T07:50:29.957Z,2.70
2019-06-02T07:51:35.479Z,2.60
2019-06-02T07:52:41.013Z,2.90
2019-06-02T07:53:46.517Z,3.70
2019-06-02T07:54:52.046Z,2.50
2019-06-02T07:55:57.569Z,2.80
2019-06-02T07:57:04.112Z,3.70
2019-06-02T07:58:08.584Z,2.60
2019-06-02T07:59:14.106Z,3.20
2019-06-02T08:00:19.624Z,2.60
2019-06-02T08:01:25.190Z,2.70
2019-06-02T08:02:30.674Z,2.40
2019-06-02T08:03:36.181Z,3.20
2019-06-02T08:04:41.700Z,2.50
2019-06-02T08:05:47.220Z,2.40
2019-06-02T08:06:52.732Z,2.60
2019-06-02T08:07:58.253Z,2.50
2019-06-02T08:09:04.650Z,2.50
2019-06-02T08:10:10.662Z,2.60
2019-06-02T08:11:14.810Z,2.50
2019-06-02T08:12:20.334Z,2.40
2019-06-02T08:13:25.855Z,2.20
2019-06-02T08:14:31.393Z,2.40
2019-06-02T08:15:36.892Z,2.40
2019-06-02T08:16:42.414Z,2.50
2019-06-02T08:17:47.937Z,2.40
2019-06-02T08:18:53.438Z,2.90
2019-06-02T08:19:58.963Z,3.40
2019-06-02T08:21:04.706Z,2.70
2019-06-02T08:22:11.078Z,2.80
2019-06-02T08:23:15.518Z,2.50
2019-06-02T08:24:21.541Z,2.50
2019-06-02T08:25:26.563Z,2.00
2019-06-02T08:26:32.077Z,3.20
2019-06-02T08:27:37.611Z,2.20
2019-06-02T08:28:43.117Z,3.30
2019-06-02T08:29:48.633Z,2.20
2019-06-02T08:30:54.157Z,2.20
2019-06-02T08:32:00.845Z,2.30
2019-06-02T08:33:05.610Z,2.30
2019-06-02T08:34:11.505Z,2.10
2019-06-02T08:35:16.224Z,2.30
2019-06-02T08:36:21.755Z,2.70
2019-06-02T08:37:27.267Z,2.00
2019-06-02T08:38:32.794Z,4.10
2019-06-02T08:39:38.306Z,2.50
2019-06-02T08:40:43.830Z,3.10
2019-06-02T08:41:49.367Z,3.00
2019-06-02T08:42:54.870Z,2.40
2019-06-02T08:44:02.045Z,3.70
2019-06-02T08:45:05.904Z,1.90
2019-06-02T08:46:12.182Z,3.50
2019-06-02T08:47:16.954Z,2.20
2019-06-02T08:48:22.462Z,2.30
2019-06-02T08:49:27.995Z,2.10
2019-06-02T08:50:33.499Z,2.30
2019-06-02T08:51:39.021Z,2.50
2019-06-02T08:52:44.538Z,2.20
2019-06-02T08:53:50.069Z,2.00
2019-06-02T08:54:55.572Z,2.00
2019-06-02T08:56:02.356Z,2.90
2019-06-02T08:57:06.624Z,2.30
2019-06-02T08:58:16.528Z,3.40
2019-06-02T08:59:17.658Z,2.20
2019-06-02T09:00:23.175Z,1.90
2019-06-02T09:01:28.695Z,2.00
2019-06-02T09:02:34.215Z,3.00
2019-06-02T09:03:39.744Z,2.00
2019-06-02T09:04:45.252Z,1.90
2019-06-02T09:05:50.781Z,2.30
2019-06-02T09:06:56.289Z,2.10
2019-06-02T09:08:01.827Z,2.30
2019-06-02T09:09:07.949Z,1.90
2019-06-02T09:10:13.378Z,2.00
2019-06-02T09:11:18.383Z,2.20
2019-06-02T09:12:23.897Z,2.20
2019-06-02T09:13:29.423Z,3.20
2019-06-02T09:14:34.933Z,2.10
2019-06-02T09:15:40.452Z,2.50
2019-06-02T09:16:45.980Z,2.70
2019-06-02T09:17:51.504Z,2.10
2019-06-02T09:18:57.024Z,1.90
2019-06-02T09:20:02.538Z,2.00
2019-06-02T09:21:08.066Z,2.00
2019-06-02T09:22:14.066Z,2.00
2019-06-02T09:23:19.101Z,3.40
2019-06-02T09:24:24.625Z,1.70
2019-06-02T09:25:30.138Z,1.90
2019-06-02T09:26:35.656Z,2.20
2019-06-02T09:27:41.198Z,2.60
2019-06-02T09:28:46.693Z,2.10
2019-06-02T09:29:52.218Z,2.30
2019-06-02T09:30:57.751Z,1.70
2019-06-02T09:32:03.267Z,1.80
2019-06-02T09:33:08.883Z,1.90
2019-06-02T09:34:15.126Z,2.00
2019-06-02T09:35:23.159Z,1.70
2019-06-02T09:36:25.346Z,1.80
2019-06-02T09:37:30.878Z,1.70
2019-06-02T09:38:36.389Z,1.60
2019-06-02T09:39:41.895Z,1.80
2019-06-02T09:40:47.429Z,2.00
2019-06-02T09:41:52.948Z,2.00
2019-06-02T09:42:58.457Z,2.30
2019-06-02T09:44:05.249Z,2.80
2019-06-02T09:45:09.511Z,1.70
2019-06-02T09:46:15.743Z,2.50
2019-06-02T09:47:20.549Z,1.90
2019-06-02T09:48:26.073Z,2.30
2019-06-02T09:49:34.593Z,2.50
2019-06-02T09:50:45.935Z,2.10
2019-06-02T09:51:42.631Z,1.70
2019-06-02T09:52:55.760Z,2.20
2019-06-02T09:53:53.682Z,2.00
2019-06-02T09:54:59.193Z,2.60
2019-06-02T09:56:05.288Z,1.80
2019-06-02T09:57:10.232Z,1.90
2019-06-02T09:58:17.814Z,1.90
2019-06-02T09:59:21.274Z,2.40
2019-06-02T10:00:26.802Z,1.70
2019-06-02T10:01:32.320Z,1.70
2019-06-02T10:02:37.848Z,2.30
2019-06-02T10:03:43.361Z,1.60
2019-06-02T10:04:48.898Z,1.70
2019-06-02T10:05:54.412Z,1.60
2019-06-02T10:06:59.930Z,2.00
2019-06-02T10:08:05.953Z,1.90
2019-06-02T10:09:11.896Z,2.10
2019-06-02T10:10:16.782Z,1.80
2019-06-02T10:11:22.001Z,1.80
2019-06-02T10:12:27.532Z,1.60
2019-06-02T10:13:33.043Z,1.90
2019-06-02T10:14:38.581Z,1.90
2019-06-02T10:15:44.162Z,2.00
2019-06-02T10:16:49.638Z,2.10
2019-06-02T10:17:55.159Z,1.80
2019-06-02T10:19:00.656Z,2.20
2019-06-02T10:20:06.175Z,2.70
2019-06-02T10:21:12.296Z,1.70
2019-06-02T10:22:17.215Z,2.40
2019-06-02T10:23:22.735Z,1.70
2019-06-02T10:24:28.261Z,1.80
2019-06-02T10:25:33.784Z,1.80
2019-06-02T10:26:39.318Z,2.30
2019-06-02T10:27:44.833Z,1.90
2019-06-02T10:28:50.346Z,2.10
2019-06-02T10:29:55.870Z,2.10
2019-06-02T10:31:01.386Z,1.70
2019-06-02T10:32:07.225Z,1.90
2019-06-02T10:33:12.560Z,2.30
2019-06-02T10:34:17.957Z,1.80
2019-06-02T10:35:23.478Z,1.80
2019-06-02T10:36:44.644Z,1.90
2019-06-02T10:37:34.546Z,3.40
2019-06-02T10:38:40.065Z,1.70
2019-06-02T10:39:45.562Z,1.70
2019-06-02T10:40:51.093Z,1.90
2019-06-02T10:41:56.616Z,2.40
2019-06-02T10:43:02.134Z,2.00
2019-06-02T10:44:08.892Z,1.70
2019-06-02T10:45:17.972Z,1.90
2019-06-02T10:46:18.702Z,1.80
2019-06-02T10:47:24.219Z,1.70
2019-06-02T10:48:29.741Z,1.70
2019-06-02T10:49:35.283Z,2.60
2019-06-02T10:50:40.782Z,3.60
2019-06-02T10:51:46.303Z,1.70
2019-06-02T10:52:51.824Z,1.80
2019-06-02T10:53:57.349Z,1.70
2019-06-02T10:55:02.881Z,1.70
2019-06-02T10:56:08.401Z,3.20
2019-06-02T10:57:14.146Z,1.90
2019-06-02T10:58:19.922Z,2.70
2019-06-02T10:59:24.958Z,2.50
2019-06-02T11:00:30.492Z,1.90
2019-06-02T11:01:36.014Z,1.70
2019-06-02T11:02:41.530Z,2.10
2019-06-02T11:03:47.051Z,1.80
2019-06-02T11:04:52.575Z,1.60
2019-06-02T11:05:58.094Z,3.60
2019-06-02T11:07:03.618Z,1.80
2019-06-02T11:08:09.135Z,1.80
2019-06-02T11:09:14.955Z,1.90
2019-06-02T11:10:20.200Z,2.40
2019-06-02T11:11:25.708Z,1.70
2019-06-02T11:12:31.223Z,1.90
2019-06-02T11:13:36.756Z,2.00
2019-06-02T11:14:42.278Z,2.10
2019-06-02T11:15:47.800Z,1.60
2019-06-02T11:16:53.322Z,1.70
2019-06-02T11:17:58.841Z,1.90
2019-06-02T11:19:04.369Z,1.50
2019-06-02T11:20:10.030Z,1.60
2019-06-02T11:21:16.090Z,1.50
2019-06-02T11:22:20.933Z,3.00
2019-06-02T11:23:26.470Z,1.60
2019-06-02T11:24:31.966Z,2.00
2019-06-02T11:25:37.508Z,2.70
2019-06-02T11:26:43.021Z,1.80
2019-06-02T11:27:48.559Z,1.50
2019-06-02T11:28:54.059Z,1.70
2019-06-02T11:29:59.587Z,1.70
2019-06-02T11:31:05.105Z,2.20
2019-06-02T11:32:10.733Z,1.70
2019-06-02T11:33:17.424Z,1.60
2019-06-02T11:34:21.678Z,1.80
2019-06-02T11:35:27.206Z,3.50
2019-06-02T11:36:32.724Z,1.60
2019-06-02T11:37:38.246Z,1.80
2019-06-02T11:38:43.783Z,2.00
2019-06-02T11:39:49.304Z,2.00
2019-06-02T11:40:54.811Z,2.00
2019-06-02T11:42:00.337Z,1.60
2019-06-02T11:43:05.857Z,1.70
2019-06-02T11:44:11.838Z,1.70
2019-06-02T11:45:18.316Z,2.00
2019-06-02T11:46:22.844Z,1.50
2019-06-02T11:47:27.966Z,2.10
2019-06-02T11:48:33.486Z,1.60
2019-06-02T11:49:38.997Z,2.30
2019-06-02T11:50:44.532Z,2.20
2019-06-02T11:51:56.312Z,1.60
2019-06-02T11:52:55.573Z,1.50
2019-06-02T11:54:01.102Z,1.40
2019-06-02T11:55:06.617Z,1.50
2019-06-02T11:56:12.148Z,2.50
2019-06-02T11:57:18.285Z,2.00
2019-06-02T11:58:23.755Z,1.70
2019-06-02T11:59:28.713Z,2.20
2019-06-02T12:00:34.265Z,2.00
2019-06-02T12:01:39.750Z,4.90
2019-06-02T12:02:45.284Z,1.50
2019-06-02T12:03:50.797Z,1.60
2019-06-02T12:04:56.318Z,2.40
2019-06-02T12:06:01.883Z,1.50
2019-06-02T12:07:07.387Z,2.90
2019-06-02T12:08:13.990Z,1.60
2019-06-02T12:09:19.072Z,1.70
2019-06-02T12:10:25.379Z,1.50
2019-06-02T12:11:29.464Z,1.70
2019-06-02T12:12:34.982Z,1.50
2019-06-02T12:13:40.510Z,2.00
2019-06-02T12:14:46.027Z,1.60
2019-06-02T12:15:51.554Z,1.60
2019-06-02T12:16:57.085Z,1.70
2019-06-02T12:18:02.608Z,1.70
2019-06-02T12:19:08.128Z,1.60
2019-06-02T12:20:14.876Z,1.50
2019-06-02T12:21:19.743Z,1.60
2019-06-02T12:22:25.742Z,1.60
2019-06-02T12:23:30.210Z,1.60
2019-06-02T12:24:35.743Z,1.70
2019-06-02T12:25:41.259Z,2.10
2019-06-02T12:26:46.788Z,1.80
2019-06-02T12:27:52.324Z,1.50
2019-06-02T12:28:57.865Z,1.70
2019-06-02T12:30:03.357Z,2.20
2019-06-02T12:31:08.879Z,1.60
2019-06-02T12:32:15.782Z,1.60
2019-06-02T12:33:20.752Z,2.00
2019-06-02T12:34:26.435Z,1.60
2019-06-02T12:35:33.414Z,1.60
2019-06-02T12:36:36.499Z,1.70
2019-06-02T12:37:42.039Z,2.00
2019-06-02T12:38:47.564Z,2.20
2019-06-02T12:39:53.073Z,1.60
2019-06-02T12:40:58.598Z,1.70
2019-06-02T12:42:07.298Z,1.70
2019-06-02T12:43:09.634Z,1.60
2019-06-02T12:44:16.354Z,1.70
2019-06-02T12:45:20.791Z,1.70
2019-06-02T12:46:28.355Z,1.60
2019-06-02T12:47:31.731Z,1.80
2019-06-02T12:48:37.250Z,1.60
2019-06-02T12:49:42.787Z,2.20
2019-06-02T12:50:48.310Z,1.70
2019-06-02T12:51:53.821Z,1.80
2019-06-02T12:52:59.343Z,2.00
2019-06-02T12:54:04.867Z,2.00
2019-06-02T12:55:14.209Z,1.70
2019-06-02T12:56:17.112Z,2.60
2019-06-02T12:57:27.016Z,2.00
2019-06-02T12:58:27.381Z,1.80
2019-06-02T12:59:32.494Z,1.90
2019-06-02T13:00:38.030Z,1.90
2019-06-02T13:01:43.549Z,1.80
2019-06-02T13:02:49.095Z,1.80
2019-06-02T13:03:54.594Z,3.70
2019-06-02T13:05:00.203Z,2.30
2019-06-02T13:06:05.636Z,1.60
2019-06-02T13:07:11.154Z,1.90
2019-06-02T13:08:19.487Z,1.70
2019-06-02T13:09:22.200Z,3.30
2019-06-02T13:10:28.259Z,1.60
2019-06-02T13:11:33.262Z,1.90
2019-06-02T13:12:38.775Z,2.00
2019-06-02T13:13:44.294Z,1.80
2019-06-02T13:14:52.101Z,1.80
2019-06-02T13:15:55.343Z,2.30
2019-06-02T13:17:00.863Z,1.70
2019-06-02T13:18:06.433Z,1.80
2019-06-02T13:19:11.917Z,1.90
2019-06-02T13:20:17.460Z,2.40
2019-06-02T13:21:24.264Z,2.40
2019-06-02T13:22:28.625Z,1.80
2019-06-02T13:23:34.025Z,1.90
2019-06-02T13:24:39.528Z,1.90
2019-06-02T13:25:45.057Z,2.60
2019-06-02T13:26:50.596Z,2.20
2019-06-02T13:27:56.112Z,2.70
2019-06-02T13:29:01.646Z,2.20
2019-06-02T13:30:07.154Z,2.30
2019-06-02T13:31:12.683Z,2.20
2019-06-02T13:32:18.524Z,2.10
2019-06-02T13:33:24.814Z,1.80
2019-06-02T13:34:29.450Z,2.00
2019-06-02T13:35:34.771Z,2.10
2019-06-02T13:36:40.296Z,1.90
2019-06-02T13:37:45.813Z,1.70
2019-06-02T13:38:51.351Z,1.60
2019-06-02T13:39:56.866Z,2.90
2019-06-02T13:41:02.387Z,2.10
2019-06-02T13:42:07.910Z,2.00
2019-06-02T13:43:13.436Z,2.00
2019-06-02T13:44:19.178Z,1.70
2019-06-02T13:45:25.620Z,3.40
2019-06-02T13:46:30.051Z,1.80
2019-06-02T13:47:35.526Z,2.10
2019-06-02T13:48:41.059Z,3.00
2019-06-02T13:49:46.594Z,1.90
2019-06-02T13:50:52.145Z,1.90
2019-06-02T13:51:57.632Z,1.90
2019-06-02T13:53:06.406Z,2.10
2019-06-02T13:54:08.686Z,2.00
2019-06-02T13:55:14.193Z,1.90
2019-06-02T13:56:19.733Z,2.00
2019-06-02T13:57:25.708Z,1.80
2019-06-02T13:58:33.020Z,2.10
2019-06-02T13:59:36.293Z,2.00
2019-06-02T14:00:41.804Z,1.80
2019-06-02T14:01:47.324Z,2.20
2019-06-02T14:02:52.851Z,2.00
2019-06-02T14:03:58.382Z,2.70
2019-06-02T14:05:03.899Z,1.90
2019-06-02T14:06:09.436Z,3.00
2019-06-02T14:07:14.944Z,2.00
2019-06-02T14:08:20.492Z,2.30
2019-06-02T14:09:26.441Z,2.10
2019-06-02T14:10:32.889Z,1.90
2019-06-02T14:11:37.037Z,2.30
2019-06-02T14:12:42.565Z,2.30
2019-06-02T14:13:48.087Z,2.10
2019-06-02T14:14:53.606Z,2.00
2019-06-02T14:15:59.143Z,2.50
2019-06-02T14:17:04.676Z,2.00
2019-06-02T14:18:10.229Z,2.50
2019-06-02T14:19:15.700Z,2.00
2019-06-02T14:20:21.240Z,2.30
2019-06-02T14:21:26.935Z,2.30
2019-06-02T14:22:32.264Z,2.40
2019-06-02T14:23:37.798Z,1.70
2019-06-02T14:24:43.316Z,2.40
2019-06-02T14:25:48.857Z,1.80
2019-06-02T14:26:54.370Z,2.10
2019-06-02T14:27:59.896Z,2.30
2019-06-02T14:29:05.404Z,2.00
2019-06-02T14:30:10.924Z,2.00
2019-06-02T14:31:16.456Z,2.70